sensor_id;sensor_type;location;lat;lon;timestamp;P1;durP1;ratioP1;P2;durP2;ratioP2
7336;SDS011;54510;42.016;23.098;2022-12-07T00:01:26;14.77;;;3.88;;
7336;SDS011;54510;42.016;23.098;2022-12-07T00:03:54;5.38;;;3.78;;
7336;SDS011;54510;42.016;23.098;2022-12-07T00:06:29;9.18;;;4.32;;
7336;SDS011;54510;42.016;23.098;2022-12-07T00:08:56;8.07;;;3.70;;
7336;SDS011;54510;42.016;23.098;2022-12-07T00:11:22;10.00;;;3.22;;
7336;SDS011;54510;42.016;23.098;2022-12-07T00:13:52;16.60;;;4.13;;
7336;SDS011;54510;42.016;23.098;2022-12-07T00:16:19;8.50;;;3.63;;
7336;SDS011;54510;42.016;23.098;2022-12-07T00:18:46;6.47;;;2.90;;
7336;SDS011;54510;42.016;23.098;2022-12-07T00:21:17;7.57;;;3.72;;
7336;SDS011;54510;42.016;23.098;2022-12-07T00:23:44;8.27;;;4.03;;
7336;SDS011;54510;42.016;23.098;2022-12-07T00:26:15;7.55;;;3.20;;
7336;SDS011;54510;42.016;23.098;2022-12-07T00:28:47;6.32;;;2.85;;
7336;SDS011;54510;42.016;23.098;2022-12-07T00:31:17;5.90;;;3.30;;
7336;SDS011;54510;42.016;23.098;2022-12-07T00:33:44;8.85;;;3.63;;
7336;SDS011;54510;42.016;23.098;2022-12-07T00:36:12;5.40;;;3.20;;
7336;SDS011;54510;42.016;23.098;2022-12-07T00:38:39;8.18;;;3.50;;
7336;SDS011;54510;42.016;23.098;2022-12-07T00:41:06;9.75;;;3.28;;
7336;SDS011;54510;42.016;23.098;2022-12-07T00:43:35;10.45;;;3.42;;
7336;SDS011;54510;42.016;23.098;2022-12-07T00:46:00;7.88;;;3.47;;
7336;SDS011;54510;42.016;23.098;2022-12-07T00:48:26;6.95;;;3.35;;
7336;SDS011;54510;42.016;23.098;2022-12-07T00:50:51;6.90;;;3.40;;
7336;SDS011;54510;42.016;23.098;2022-12-07T00:53:17;7.88;;;4.10;;
7336;SDS011;54510;42.016;23.098;2022-12-07T00:55:43;8.68;;;3.95;;
7336;SDS011;54510;42.016;23.098;2022-12-07T00:58:09;7.30;;;3.38;;
7336;SDS011;54510;42.016;23.098;2022-12-07T01:00:35;8.10;;;3.88;;
7336;SDS011;54510;42.016;23.098;2022-12-07T01:03:01;10.35;;;4.03;;
7336;SDS011;54510;42.016;23.098;2022-12-07T01:05:27;4.78;;;2.75;;
7336;SDS011;54510;42.016;23.098;2022-12-07T01:07:53;5.75;;;3.35;;
7336;SDS011;54510;42.016;23.098;2022-12-07T01:10:18;7.70;;;3.60;;
7336;SDS011;54510;42.016;23.098;2022-12-07T01:12:43;15.68;;;4.70;;
7336;SDS011;54510;42.016;23.098;2022-12-07T01:15:09;7.45;;;3.45;;
7336;SDS011;54510;42.016;23.098;2022-12-07T01:17:34;8.82;;;4.13;;
7336;SDS011;54510;42.016;23.098;2022-12-07T01:20:00;6.68;;;3.33;;
7336;SDS011;54510;42.016;23.098;2022-12-07T01:22:26;7.05;;;3.13;;
7336;SDS011;54510;42.016;23.098;2022-12-07T01:24:52;5.00;;;3.08;;
7336;SDS011;54510;42.016;23.098;2022-12-07T01:27:17;7.03;;;3.47;;
7336;SDS011;54510;42.016;23.098;2022-12-07T01:29:42;7.88;;;3.63;;
7336;SDS011;54510;42.016;23.098;2022-12-07T01:32:08;9.77;;;2.80;;
7336;SDS011;54510;42.016;23.098;2022-12-07T01:34:33;7.22;;;4.38;;
7336;SDS011;54510;42.016;23.098;2022-12-07T01:36:59;6.88;;;3.97;;
7336;SDS011;54510;42.016;23.098;2022-12-07T01:39:24;14.88;;;4.22;;
7336;SDS011;54510;42.016;23.098;2022-12-07T01:41:50;11.82;;;4.85;;
7336;SDS011;54510;42.016;23.098;2022-12-07T01:46:42;10.52;;;4.65;;
7336;SDS011;54510;42.016;23.098;2022-12-07T01:49:14;9.13;;;4.57;;
7336;SDS011;54510;42.016;23.098;2022-12-07T01:51:45;9.90;;;4.20;;
7336;SDS011;54510;42.016;23.098;2022-12-07T01:54:12;7.55;;;3.88;;
7336;SDS011;54510;42.016;23.098;2022-12-07T01:56:40;8.65;;;3.72;;
7336;SDS011;54510;42.016;23.098;2022-12-07T01:59:12;9.52;;;5.75;;
7336;SDS011;54510;42.016;23.098;2022-12-07T02:01:38;8.63;;;4.30;;
7336;SDS011;54510;42.016;23.098;2022-12-07T02:04:04;15.80;;;7.72;;
7336;SDS011;54510;42.016;23.098;2022-12-07T02:06:31;15.13;;;6.45;;
7336;SDS011;54510;42.016;23.098;2022-12-07T02:08:56;8.85;;;5.20;;
7336;SDS011;54510;42.016;23.098;2022-12-07T02:11:22;8.18;;;4.93;;
7336;SDS011;54510;42.016;23.098;2022-12-07T02:13:47;7.75;;;4.30;;
7336;SDS011;54510;42.016;23.098;2022-12-07T02:19:05;9.73;;;4.40;;
7336;SDS011;54510;42.016;23.098;2022-12-07T02:24:42;9.07;;;3.92;;
7336;SDS011;54510;42.016;23.098;2022-12-07T02:27:39;10.75;;;3.55;;
7336;SDS011;54510;42.016;23.098;2022-12-07T02:30:20;5.57;;;3.20;;
7336;SDS011;54510;42.016;23.098;2022-12-07T02:38:25;12.10;;;4.10;;
7336;SDS011;54510;42.016;23.098;2022-12-07T02:41:07;6.53;;;3.38;;
7336;SDS011;54510;42.016;23.098;2022-12-07T02:46:08;9.27;;;4.63;;
7336;SDS011;54510;42.016;23.098;2022-12-07T02:48:40;7.70;;;3.45;;
7336;SDS011;54510;42.016;23.098;2022-12-07T02:51:08;7.47;;;3.70;;
7336;SDS011;54510;42.016;23.098;2022-12-07T02:53:43;12.43;;;4.03;;
7336;SDS011;54510;42.016;23.098;2022-12-07T03:01:55;7.55;;;4.43;;
7336;SDS011;54510;42.016;23.098;2022-12-07T03:15:45;8.15;;;4.68;;
7336;SDS011;54510;42.016;23.098;2022-12-07T03:18:12;9.98;;;5.15;;
7336;SDS011;54510;42.016;23.098;2022-12-07T03:20:41;14.13;;;4.50;;
7336;SDS011;54510;42.016;23.098;2022-12-07T03:23:10;9.40;;;4.75;;
7336;SDS011;54510;42.016;23.098;2022-12-07T03:25:40;6.25;;;4.82;;
7336;SDS011;54510;42.016;23.098;2022-12-07T03:28:08;6.93;;;4.10;;
7336;SDS011;54510;42.016;23.098;2022-12-07T03:31:19;7.15;;;4.45;;
7336;SDS011;54510;42.016;23.098;2022-12-07T03:33:32;11.95;;;4.68;;
7336;SDS011;54510;42.016;23.098;2022-12-07T03:36:21;6.95;;;3.75;;
7336;SDS011;54510;42.016;23.098;2022-12-07T03:38:56;7.38;;;3.88;;
7336;SDS011;54510;42.016;23.098;2022-12-07T03:41:29;8.25;;;4.30;;
7336;SDS011;54510;42.016;23.098;2022-12-07T03:43:58;8.68;;;3.85;;
7336;SDS011;54510;42.016;23.098;2022-12-07T03:54:11;8.10;;;4.03;;
7336;SDS011;54510;42.016;23.098;2022-12-07T03:56:44;10.98;;;4.07;;
7336;SDS011;54510;42.016;23.098;2022-12-07T03:59:12;5.53;;;3.60;;
7336;SDS011;54510;42.016;23.098;2022-12-07T04:01:41;7.32;;;4.03;;
7336;SDS011;54510;42.016;23.098;2022-12-07T04:04:07;7.60;;;4.35;;
7336;SDS011;54510;42.016;23.098;2022-12-07T04:06:33;8.00;;;3.47;;
7336;SDS011;54510;42.016;23.098;2022-12-07T04:08:58;5.85;;;3.97;;
7336;SDS011;54510;42.016;23.098;2022-12-07T04:11:23;9.77;;;4.20;;
7336;SDS011;54510;42.016;23.098;2022-12-07T04:13:49;6.25;;;3.92;;
7336;SDS011;54510;42.016;23.098;2022-12-07T04:16:33;10.02;;;5.03;;
7336;SDS011;54510;42.016;23.098;2022-12-07T04:18:58;11.30;;;4.22;;
7336;SDS011;54510;42.016;23.098;2022-12-07T04:21:24;9.02;;;4.25;;
7336;SDS011;54510;42.016;23.098;2022-12-07T04:23:49;8.05;;;3.83;;
7336;SDS011;54510;42.016;23.098;2022-12-07T04:26:14;7.13;;;3.85;;
7336;SDS011;54510;42.016;23.098;2022-12-07T04:28:40;7.93;;;3.83;;
7336;SDS011;54510;42.016;23.098;2022-12-07T04:31:05;6.38;;;4.72;;
7336;SDS011;54510;42.016;23.098;2022-12-07T04:33:30;9.25;;;4.57;;
7336;SDS011;54510;42.016;23.098;2022-12-07T04:35:56;8.55;;;4.93;;
7336;SDS011;54510;42.016;23.098;2022-12-07T04:38:21;22.42;;;5.45;;
7336;SDS011;54510;42.016;23.098;2022-12-07T04:40:46;9.23;;;4.55;;
7336;SDS011;54510;42.016;23.098;2022-12-07T04:43:12;8.15;;;4.38;;
7336;SDS011;54510;42.016;23.098;2022-12-07T04:45:37;13.10;;;6.63;;
7336;SDS011;54510;42.016;23.098;2022-12-07T04:48:03;13.10;;;6.38;;
7336;SDS011;54510;42.016;23.098;2022-12-07T04:50:28;14.27;;;6.38;;
7336;SDS011;54510;42.016;23.098;2022-12-07T04:52:53;10.20;;;5.57;;
7336;SDS011;54510;42.016;23.098;2022-12-07T04:55:19;11.10;;;4.88;;
7336;SDS011;54510;42.016;23.098;2022-12-07T04:57:44;16.27;;;5.47;;
7336;SDS011;54510;42.016;23.098;2022-12-07T05:00:10;12.10;;;5.85;;
7336;SDS011;54510;42.016;23.098;2022-12-07T05:02:35;9.05;;;4.95;;
7336;SDS011;54510;42.016;23.098;2022-12-07T05:05:01;8.60;;;5.22;;
7336;SDS011;54510;42.016;23.098;2022-12-07T05:07:26;11.55;;;6.10;;
7336;SDS011;54510;42.016;23.098;2022-12-07T05:09:51;11.23;;;5.28;;
7336;SDS011;54510;42.016;23.098;2022-12-07T05:12:17;13.05;;;5.32;;
7336;SDS011;54510;42.016;23.098;2022-12-07T05:14:42;15.70;;;7.05;;
7336;SDS011;54510;42.016;23.098;2022-12-07T05:17:08;12.60;;;5.57;;
7336;SDS011;54510;42.016;23.098;2022-12-07T05:19:33;16.30;;;7.55;;
7336;SDS011;54510;42.016;23.098;2022-12-07T05:21:58;12.93;;;6.47;;
7336;SDS011;54510;42.016;23.098;2022-12-07T05:24:24;16.35;;;7.13;;
7336;SDS011;54510;42.016;23.098;2022-12-07T05:26:49;15.95;;;6.68;;
7336;SDS011;54510;42.016;23.098;2022-12-07T05:29:15;19.83;;;8.63;;
7336;SDS011;54510;42.016;23.098;2022-12-07T05:31:42;20.45;;;11.48;;
7336;SDS011;54510;42.016;23.098;2022-12-07T05:34:08;22.73;;;9.57;;
7336;SDS011;54510;42.016;23.098;2022-12-07T05:36:33;18.67;;;7.78;;
7336;SDS011;54510;42.016;23.098;2022-12-07T05:38:59;24.83;;;11.70;;
7336;SDS011;54510;42.016;23.098;2022-12-07T05:41:24;43.70;;;23.30;;
7336;SDS011;54510;42.016;23.098;2022-12-07T05:44:09;18.45;;;10.57;;
7336;SDS011;54510;42.016;23.098;2022-12-07T05:46:34;21.05;;;10.68;;
7336;SDS011;54510;42.016;23.098;2022-12-07T05:49:00;81.90;;;41.33;;
7336;SDS011;54510;42.016;23.098;2022-12-07T05:51:26;59.00;;;30.52;;
7336;SDS011;54510;42.016;23.098;2022-12-07T05:53:51;23.55;;;11.63;;
7336;SDS011;54510;42.016;23.098;2022-12-07T05:56:17;22.15;;;9.32;;
7336;SDS011;54510;42.016;23.098;2022-12-07T05:58:42;12.45;;;7.80;;
7336;SDS011;54510;42.016;23.098;2022-12-07T06:01:27;18.08;;;10.50;;
7336;SDS011;54510;42.016;23.098;2022-12-07T06:03:52;80.13;;;42.58;;
7336;SDS011;54510;42.016;23.098;2022-12-07T06:06:17;59.60;;;36.47;;
7336;SDS011;54510;42.016;23.098;2022-12-07T06:08:43;32.88;;;18.05;;
7336;SDS011;54510;42.016;23.098;2022-12-07T06:11:08;15.60;;;9.23;;
7336;SDS011;54510;42.016;23.098;2022-12-07T06:13:52;14.30;;;7.40;;
7336;SDS011;54510;42.016;23.098;2022-12-07T06:16:17;17.48;;;7.78;;
7336;SDS011;54510;42.016;23.098;2022-12-07T06:18:43;16.60;;;9.32;;
7336;SDS011;54510;42.016;23.098;2022-12-07T06:21:08;19.75;;;10.32;;
7336;SDS011;54510;42.016;23.098;2022-12-07T06:23:34;18.33;;;10.70;;
7336;SDS011;54510;42.016;23.098;2022-12-07T06:25:59;22.23;;;10.75;;
7336;SDS011;54510;42.016;23.098;2022-12-07T06:28:25;27.52;;;10.15;;
7336;SDS011;54510;42.016;23.098;2022-12-07T06:30:59;25.48;;;11.82;;
7336;SDS011;54510;42.016;23.098;2022-12-07T06:33:26;28.48;;;11.65;;
7336;SDS011;54510;42.016;23.098;2022-12-07T06:35:52;27.77;;;12.27;;
7336;SDS011;54510;42.016;23.098;2022-12-07T06:38:17;26.63;;;13.18;;
7336;SDS011;54510;42.016;23.098;2022-12-07T06:40:43;29.75;;;13.75;;
7336;SDS011;54510;42.016;23.098;2022-12-07T06:43:08;26.90;;;14.85;;
7336;SDS011;54510;42.016;23.098;2022-12-07T06:45:34;33.95;;;16.98;;
7336;SDS011;54510;42.016;23.098;2022-12-07T06:47:59;34.03;;;17.02;;
7336;SDS011;54510;42.016;23.098;2022-12-07T06:50:24;36.72;;;15.15;;
7336;SDS011;54510;42.016;23.098;2022-12-07T06:52:51;30.42;;;16.42;;
7336;SDS011;54510;42.016;23.098;2022-12-07T06:55:16;32.78;;;19.52;;
7336;SDS011;54510;42.016;23.098;2022-12-07T06:57:42;53.42;;;28.38;;
7336;SDS011;54510;42.016;23.098;2022-12-07T07:00:08;48.28;;;26.42;;
7336;SDS011;54510;42.016;23.098;2022-12-07T07:02:34;51.63;;;31.17;;
7336;SDS011;54510;42.016;23.098;2022-12-07T07:04:59;54.95;;;34.40;;
7336;SDS011;54510;42.016;23.098;2022-12-07T07:07:25;34.05;;;18.60;;
7336;SDS011;54510;42.016;23.098;2022-12-07T07:09:50;26.02;;;15.25;;
7336;SDS011;54510;42.016;23.098;2022-12-07T07:12:15;24.48;;;15.32;;
7336;SDS011;54510;42.016;23.098;2022-12-07T07:14:41;63.33;;;33.92;;
7336;SDS011;54510;42.016;23.098;2022-12-07T07:17:06;74.18;;;41.63;;
7336;SDS011;54510;42.016;23.098;2022-12-07T07:19:32;52.10;;;27.48;;
7336;SDS011;54510;42.016;23.098;2022-12-07T07:21:57;20.13;;;12.60;;
7336;SDS011;54510;42.016;23.098;2022-12-07T07:24:23;19.58;;;11.27;;
7336;SDS011;54510;42.016;23.098;2022-12-07T07:26:48;18.65;;;10.95;;
7336;SDS011;54510;42.016;23.098;2022-12-07T07:29:13;22.65;;;12.10;;
7336;SDS011;54510;42.016;23.098;2022-12-07T07:31:39;22.70;;;12.18;;
7336;SDS011;54510;42.016;23.098;2022-12-07T07:34:04;23.75;;;13.95;;
7336;SDS011;54510;42.016;23.098;2022-12-07T07:36:29;27.42;;;13.25;;
7336;SDS011;54510;42.016;23.098;2022-12-07T07:38:55;23.00;;;14.07;;
7336;SDS011;54510;42.016;23.098;2022-12-07T07:41:20;29.65;;;19.30;;
7336;SDS011;54510;42.016;23.098;2022-12-07T07:43:46;23.05;;;11.50;;
7336;SDS011;54510;42.016;23.098;2022-12-07T07:46:11;23.83;;;10.93;;
7336;SDS011;54510;42.016;23.098;2022-12-07T07:48:36;20.77;;;11.93;;
7336;SDS011;54510;42.016;23.098;2022-12-07T07:51:04;35.30;;;23.25;;
7336;SDS011;54510;42.016;23.098;2022-12-07T07:53:32;26.90;;;16.48;;
7336;SDS011;54510;42.016;23.098;2022-12-07T07:55:57;21.67;;;11.75;;
7336;SDS011;54510;42.016;23.098;2022-12-07T07:58:23;20.02;;;11.13;;
7336;SDS011;54510;42.016;23.098;2022-12-07T08:00:49;21.58;;;12.05;;
7336;SDS011;54510;42.016;23.098;2022-12-07T08:03:14;16.20;;;8.90;;
7336;SDS011;54510;42.016;23.098;2022-12-07T08:05:40;18.20;;;10.93;;
7336;SDS011;54510;42.016;23.098;2022-12-07T08:08:05;13.48;;;8.02;;
7336;SDS011;54510;42.016;23.098;2022-12-07T08:10:31;18.33;;;6.82;;
7336;SDS011;54510;42.016;23.098;2022-12-07T08:12:57;17.40;;;7.72;;
7336;SDS011;54510;42.016;23.098;2022-12-07T08:15:42;24.30;;;11.77;;
7336;SDS011;54510;42.016;23.098;2022-12-07T08:18:09;12.18;;;6.43;;
7336;SDS011;54510;42.016;23.098;2022-12-07T08:20:35;20.67;;;10.25;;
7336;SDS011;54510;42.016;23.098;2022-12-07T08:23:01;15.68;;;7.32;;
7336;SDS011;54510;42.016;23.098;2022-12-07T08:25:26;11.55;;;5.13;;
7336;SDS011;54510;42.016;23.098;2022-12-07T08:27:52;21.75;;;6.82;;
7336;SDS011;54510;42.016;23.098;2022-12-07T08:30:20;10.63;;;6.25;;
7336;SDS011;54510;42.016;23.098;2022-12-07T08:32:46;13.23;;;6.07;;
7336;SDS011;54510;42.016;23.098;2022-12-07T08:35:12;15.48;;;7.32;;
7336;SDS011;54510;42.016;23.098;2022-12-07T08:37:38;13.07;;;6.03;;
7336;SDS011;54510;42.016;23.098;2022-12-07T08:40:04;15.23;;;5.55;;
7336;SDS011;54510;42.016;23.098;2022-12-07T08:42:31;23.00;;;12.32;;
7336;SDS011;54510;42.016;23.098;2022-12-07T08:45:04;35.22;;;13.60;;
7336;SDS011;54510;42.016;23.098;2022-12-07T08:47:31;12.63;;;8.27;;
7336;SDS011;54510;42.016;23.098;2022-12-07T08:49:57;15.77;;;7.47;;
7336;SDS011;54510;42.016;23.098;2022-12-07T08:52:28;11.88;;;6.18;;
7336;SDS011;54510;42.016;23.098;2022-12-07T08:54:55;18.90;;;7.05;;
7336;SDS011;54510;42.016;23.098;2022-12-07T08:57:21;11.25;;;6.75;;
7336;SDS011;54510;42.016;23.098;2022-12-07T08:59:46;21.55;;;11.00;;
7336;SDS011;54510;42.016;23.098;2022-12-07T09:02:12;12.63;;;7.60;;
7336;SDS011;54510;42.016;23.098;2022-12-07T09:04:37;23.25;;;12.35;;
7336;SDS011;54510;42.016;23.098;2022-12-07T09:07:02;11.13;;;4.75;;
7336;SDS011;54510;42.016;23.098;2022-12-07T09:09:29;12.15;;;5.85;;
7336;SDS011;54510;42.016;23.098;2022-12-07T09:11:54;18.35;;;5.15;;
7336;SDS011;54510;42.016;23.098;2022-12-07T09:14:20;14.27;;;6.45;;
7336;SDS011;54510;42.016;23.098;2022-12-07T09:16:45;10.68;;;6.13;;
7336;SDS011;54510;42.016;23.098;2022-12-07T09:19:11;10.82;;;5.50;;
7336;SDS011;54510;42.016;23.098;2022-12-07T09:21:36;11.13;;;5.35;;
7336;SDS011;54510;42.016;23.098;2022-12-07T09:24:02;11.57;;;5.10;;
7336;SDS011;54510;42.016;23.098;2022-12-07T09:26:27;15.68;;;8.93;;
7336;SDS011;54510;42.016;23.098;2022-12-07T09:28:52;12.32;;;4.72;;
7336;SDS011;54510;42.016;23.098;2022-12-07T09:31:18;11.07;;;5.97;;
7336;SDS011;54510;42.016;23.098;2022-12-07T09:33:43;11.65;;;6.03;;
7336;SDS011;54510;42.016;23.098;2022-12-07T09:36:09;8.63;;;4.97;;
7336;SDS011;54510;42.016;23.098;2022-12-07T09:38:35;9.18;;;5.00;;
7336;SDS011;54510;42.016;23.098;2022-12-07T09:41:07;20.88;;;7.70;;
7336;SDS011;54510;42.016;23.098;2022-12-07T09:43:33;9.88;;;4.53;;
7336;SDS011;54510;42.016;23.098;2022-12-07T09:46:01;9.60;;;4.78;;
7336;SDS011;54510;42.016;23.098;2022-12-07T09:48:31;15.68;;;8.07;;
7336;SDS011;54510;42.016;23.098;2022-12-07T09:51:00;12.45;;;5.18;;
7336;SDS011;54510;42.016;23.098;2022-12-07T09:53:27;13.52;;;5.68;;
7336;SDS011;54510;42.016;23.098;2022-12-07T09:55:57;9.13;;;5.70;;
7336;SDS011;54510;42.016;23.098;2022-12-07T09:58:26;10.32;;;5.65;;
7336;SDS011;54510;42.016;23.098;2022-12-07T10:00:55;9.63;;;6.38;;
7336;SDS011;54510;42.016;23.098;2022-12-07T10:03:23;10.68;;;5.43;;
7336;SDS011;54510;42.016;23.098;2022-12-07T10:05:51;14.75;;;6.30;;
7336;SDS011;54510;42.016;23.098;2022-12-07T10:08:18;13.93;;;5.53;;
7336;SDS011;54510;42.016;23.098;2022-12-07T10:10:44;8.15;;;4.38;;
7336;SDS011;54510;42.016;23.098;2022-12-07T10:13:15;14.20;;;5.28;;
7336;SDS011;54510;42.016;23.098;2022-12-07T10:15:52;7.05;;;4.97;;
7336;SDS011;54510;42.016;23.098;2022-12-07T10:21:08;8.80;;;4.43;;
7336;SDS011;54510;42.016;23.098;2022-12-07T10:23:35;12.70;;;8.77;;
7336;SDS011;54510;42.016;23.098;2022-12-07T10:26:25;12.00;;;7.85;;
7336;SDS011;54510;42.016;23.098;2022-12-07T10:28:56;12.77;;;5.57;;
7336;SDS011;54510;42.016;23.098;2022-12-07T10:31:25;10.38;;;5.35;;
7336;SDS011;54510;42.016;23.098;2022-12-07T10:33:55;8.52;;;5.00;;
7336;SDS011;54510;42.016;23.098;2022-12-07T10:36:35;14.85;;;4.47;;
7336;SDS011;54510;42.016;23.098;2022-12-07T10:39:03;12.75;;;4.47;;
7336;SDS011;54510;42.016;23.098;2022-12-07T10:42:21;8.88;;;4.57;;
7336;SDS011;54510;42.016;23.098;2022-12-07T10:52:23;9.98;;;5.63;;
7336;SDS011;54510;42.016;23.098;2022-12-07T11:00:22;12.18;;;4.72;;
7336;SDS011;54510;42.016;23.098;2022-12-07T11:03:04;12.75;;;4.80;;
7336;SDS011;54510;42.016;23.098;2022-12-07T11:05:45;7.82;;;5.07;;
7336;SDS011;54510;42.016;23.098;2022-12-07T11:08:38;10.55;;;6.18;;
7336;SDS011;54510;42.016;23.098;2022-12-07T11:11:13;9.90;;;5.30;;
7336;SDS011;54510;42.016;23.098;2022-12-07T11:16:32;10.43;;;5.05;;
7336;SDS011;54510;42.016;23.098;2022-12-07T11:19:13;9.18;;;5.60;;
7336;SDS011;54510;42.016;23.098;2022-12-07T11:21:56;9.45;;;5.20;;
7336;SDS011;54510;42.016;23.098;2022-12-07T11:24:35;11.27;;;5.65;;
7336;SDS011;54510;42.016;23.098;2022-12-07T11:30:38;11.05;;;7.45;;
7336;SDS011;54510;42.016;23.098;2022-12-07T11:33:22;13.30;;;7.68;;
7336;SDS011;54510;42.016;23.098;2022-12-07T11:36:17;13.90;;;7.85;;
7336;SDS011;54510;42.016;23.098;2022-12-07T11:38:58;13.57;;;7.65;;
7336;SDS011;54510;42.016;23.098;2022-12-07T11:41:28;15.70;;;9.38;;
7336;SDS011;54510;42.016;23.098;2022-12-07T11:44:00;12.05;;;6.55;;
7336;SDS011;54510;42.016;23.098;2022-12-07T11:46:57;14.35;;;7.53;;
7336;SDS011;54510;42.016;23.098;2022-12-07T11:49:39;13.00;;;7.57;;
7336;SDS011;54510;42.016;23.098;2022-12-07T11:52:21;14.77;;;8.40;;
7336;SDS011;54510;42.016;23.098;2022-12-07T11:54:52;24.40;;;8.60;;
7336;SDS011;54510;42.016;23.098;2022-12-07T11:57:32;13.75;;;7.97;;
7336;SDS011;54510;42.016;23.098;2022-12-07T12:00:05;10.52;;;5.97;;
7336;SDS011;54510;42.016;23.098;2022-12-07T12:07:44;11.57;;;8.32;;
7336;SDS011;54510;42.016;23.098;2022-12-07T12:10:20;13.20;;;6.15;;
7336;SDS011;54510;42.016;23.098;2022-12-07T12:15:42;14.35;;;7.63;;
7336;SDS011;54510;42.016;23.098;2022-12-07T12:21:17;9.20;;;4.70;;
7336;SDS011;54510;42.016;23.098;2022-12-07T12:23:48;14.82;;;6.57;;
7336;SDS011;54510;42.016;23.098;2022-12-07T12:26:23;10.95;;;5.22;;
7336;SDS011;54510;42.016;23.098;2022-12-07T12:28:53;8.98;;;5.50;;
7336;SDS011;54510;42.016;23.098;2022-12-07T12:33:52;7.95;;;5.13;;
7336;SDS011;54510;42.016;23.098;2022-12-07T12:51:51;12.05;;;6.00;;
7336;SDS011;54510;42.016;23.098;2022-12-07T12:57:29;8.55;;;4.15;;
7336;SDS011;54510;42.016;23.098;2022-12-07T13:00:17;8.88;;;4.53;;
7336;SDS011;54510;42.016;23.098;2022-12-07T13:08:18;8.75;;;4.95;;
7336;SDS011;54510;42.016;23.098;2022-12-07T13:13:03;12.55;;;6.05;;
7336;SDS011;54510;42.016;23.098;2022-12-07T13:18:04;12.82;;;6.13;;
7336;SDS011;54510;42.016;23.098;2022-12-07T13:31:46;21.63;;;9.70;;
7336;SDS011;54510;42.016;23.098;2022-12-07T13:37:00;20.30;;;10.88;;
7336;SDS011;54510;42.016;23.098;2022-12-07T13:39:44;14.88;;;6.65;;
7336;SDS011;54510;42.016;23.098;2022-12-07T13:44:57;10.60;;;5.53;;
7336;SDS011;54510;42.016;23.098;2022-12-07T13:47:32;27.25;;;12.68;;
7336;SDS011;54510;42.016;23.098;2022-12-07T13:50:21;30.20;;;14.90;;
7336;SDS011;54510;42.016;23.098;2022-12-07T13:52:54;43.60;;;19.88;;
7336;SDS011;54510;42.016;23.098;2022-12-07T13:55:21;20.45;;;8.52;;
7336;SDS011;54510;42.016;23.098;2022-12-07T13:57:50;26.25;;;10.57;;
7336;SDS011;54510;42.016;23.098;2022-12-07T14:00:20;44.75;;;20.52;;
7336;SDS011;54510;42.016;23.098;2022-12-07T14:02:58;43.22;;;18.05;;
7336;SDS011;54510;42.016;23.098;2022-12-07T14:05:28;46.72;;;18.98;;
7336;SDS011;54510;42.016;23.098;2022-12-07T14:07:58;39.15;;;13.77;;
7336;SDS011;54510;42.016;23.098;2022-12-07T14:13:02;45.80;;;20.67;;
7336;SDS011;54510;42.016;23.098;2022-12-07T14:15:49;43.35;;;17.77;;
7336;SDS011;54510;42.016;23.098;2022-12-07T14:18:28;31.00;;;15.43;;
7336;SDS011;54510;42.016;23.098;2022-12-07T14:23:32;19.33;;;11.43;;
7336;SDS011;54510;42.016;23.098;2022-12-07T14:26:08;30.45;;;16.50;;
7336;SDS011;54510;42.016;23.098;2022-12-07T14:28:38;22.60;;;11.15;;
7336;SDS011;54510;42.016;23.098;2022-12-07T14:31:07;17.05;;;9.63;;
7336;SDS011;54510;42.016;23.098;2022-12-07T14:33:40;14.15;;;9.73;;
7336;SDS011;54510;42.016;23.098;2022-12-07T14:36:08;22.27;;;12.73;;
7336;SDS011;54510;42.016;23.098;2022-12-07T14:38:35;24.75;;;11.73;;
7336;SDS011;54510;42.016;23.098;2022-12-07T14:41:01;70.47;;;39.22;;
7336;SDS011;54510;42.016;23.098;2022-12-07T14:43:45;23.45;;;13.98;;
7336;SDS011;54510;42.016;23.098;2022-12-07T14:46:10;18.90;;;9.98;;
7336;SDS011;54510;42.016;23.098;2022-12-07T14:48:36;27.38;;;12.98;;
7336;SDS011;54510;42.016;23.098;2022-12-07T14:51:01;20.23;;;13.85;;
7336;SDS011;54510;42.016;23.098;2022-12-07T14:53:29;20.05;;;11.77;;
7336;SDS011;54510;42.016;23.098;2022-12-07T14:56:00;25.85;;;15.98;;
7336;SDS011;54510;42.016;23.098;2022-12-07T14:58:26;21.15;;;11.35;;
7336;SDS011;54510;42.016;23.098;2022-12-07T15:00:52;16.25;;;10.20;;
7336;SDS011;54510;42.016;23.098;2022-12-07T15:03:17;15.75;;;11.57;;
7336;SDS011;54510;42.016;23.098;2022-12-07T15:05:42;14.82;;;8.45;;
7336;SDS011;54510;42.016;23.098;2022-12-07T15:08:09;17.58;;;7.22;;
7336;SDS011;54510;42.016;23.098;2022-12-07T15:10:36;15.23;;;8.20;;
7336;SDS011;54510;42.016;23.098;2022-12-07T15:13:03;13.80;;;8.93;;
7336;SDS011;54510;42.016;23.098;2022-12-07T15:15:48;17.90;;;8.80;;
7336;SDS011;54510;42.016;23.098;2022-12-07T15:18:14;12.02;;;7.75;;
7336;SDS011;54510;42.016;23.098;2022-12-07T15:20:41;16.40;;;8.77;;
7336;SDS011;54510;42.016;23.098;2022-12-07T15:23:06;19.58;;;11.75;;
7336;SDS011;54510;42.016;23.098;2022-12-07T15:25:32;14.93;;;9.93;;
7336;SDS011;54510;42.016;23.098;2022-12-07T15:27:58;16.80;;;8.35;;
7336;SDS011;54510;42.016;23.098;2022-12-07T15:30:23;25.80;;;7.15;;
7336;SDS011;54510;42.016;23.098;2022-12-07T15:32:52;14.80;;;8.35;;
7336;SDS011;54510;42.016;23.098;2022-12-07T15:35:18;11.32;;;7.85;;
7336;SDS011;54510;42.016;23.098;2022-12-07T15:37:44;16.23;;;9.07;;
7336;SDS011;54510;42.016;23.098;2022-12-07T15:40:10;21.52;;;9.55;;
7336;SDS011;54510;42.016;23.098;2022-12-07T15:42:36;15.25;;;8.48;;
7336;SDS011;54510;42.016;23.098;2022-12-07T15:45:02;19.67;;;9.50;;
7336;SDS011;54510;42.016;23.098;2022-12-07T15:47:35;13.90;;;8.05;;
7336;SDS011;54510;42.016;23.098;2022-12-07T15:50:03;14.03;;;8.13;;
7336;SDS011;54510;42.016;23.098;2022-12-07T15:52:30;14.65;;;8.30;;
7336;SDS011;54510;42.016;23.098;2022-12-07T15:54:56;15.15;;;8.73;;
7336;SDS011;54510;42.016;23.098;2022-12-07T15:57:21;16.33;;;8.77;;
7336;SDS011;54510;42.016;23.098;2022-12-07T15:59:47;23.33;;;10.38;;
7336;SDS011;54510;42.016;23.098;2022-12-07T16:02:12;18.80;;;11.32;;
7336;SDS011;54510;42.016;23.098;2022-12-07T16:04:38;24.92;;;10.77;;
7336;SDS011;54510;42.016;23.098;2022-12-07T16:07:04;20.67;;;11.40;;
7336;SDS011;54510;42.016;23.098;2022-12-07T16:09:29;38.75;;;18.63;;
7336;SDS011;54510;42.016;23.098;2022-12-07T16:11:55;39.58;;;23.58;;
7336;SDS011;54510;42.016;23.098;2022-12-07T16:14:20;33.03;;;20.85;;
7336;SDS011;54510;42.016;23.098;2022-12-07T16:16:46;27.92;;;17.80;;
7336;SDS011;54510;42.016;23.098;2022-12-07T16:19:12;23.98;;;14.57;;
7336;SDS011;54510;42.016;23.098;2022-12-07T16:21:38;18.88;;;11.52;;
7336;SDS011;54510;42.016;23.098;2022-12-07T16:24:04;19.27;;;11.65;;
7336;SDS011;54510;42.016;23.098;2022-12-07T16:26:30;28.10;;;16.83;;
7336;SDS011;54510;42.016;23.098;2022-12-07T16:28:56;27.52;;;13.80;;
7336;SDS011;54510;42.016;23.098;2022-12-07T16:31:23;19.23;;;12.18;;
7336;SDS011;54510;42.016;23.098;2022-12-07T16:33:50;15.13;;;10.80;;
7336;SDS011;54510;42.016;23.098;2022-12-07T16:36:18;17.05;;;11.15;;
7336;SDS011;54510;42.016;23.098;2022-12-07T16:38:44;16.50;;;11.00;;
7336;SDS011;54510;42.016;23.098;2022-12-07T16:41:10;21.98;;;14.25;;
7336;SDS011;54510;42.016;23.098;2022-12-07T16:43:36;30.80;;;19.20;;
7336;SDS011;54510;42.016;23.098;2022-12-07T16:46:02;27.67;;;15.98;;
7336;SDS011;54510;42.016;23.098;2022-12-07T16:48:28;23.98;;;14.52;;
7336;SDS011;54510;42.016;23.098;2022-12-07T16:50:53;21.23;;;14.20;;